Time;durP1;ratioP1;P1;durP2;ratioP2;P2;SDS_P1;SDS_P2;PMS_P1;PMS_P2;Temp;Humidity;BMP_temperature;BMP_pressure;BME280_temperature;BME280_humidity;BME280_pressure;Samples;Min_cycle;Max_cycle;Signal;HPM_P1;HPM_P2
2021/04/14 00:01:11;;;;;;;20.75;10.85;;;0.50;99.90;;;;;;5075045;28;20485;-66
2021/04/14 00:03:37;;;;;;;20.25;9.73;;;0.50;99.90;;;;;;5076426;28;20448;-67
2021/04/14 00:06:07;;;;;;;18.80;10.57;;;0.50;99.90;;;;;;5076381;28;20028;-66
2021/04/14 00:08:33;;;;;;;15.90;10.52;;;0.50;99.90;;;;;;5058073;28;20148;-66
2021/04/14 00:11:00;;;;;;;16.98;10.45;;;0.50;99.90;;;;;;5076259;28;20526;-66
2021/04/14 00:13:32;;;;;;;16.70;10.40;;;0.40;99.90;;;;;;5074814;28;20111;-66
2021/04/14 00:15:58;;;;;;;18.42;10.60;;;0.40;99.90;;;;;;5074818;28;20017;-66
2021/04/14 00:18:25;;;;;;;18.98;10.93;;;0.30;99.90;;;;;;5074700;28;20074;-67
2021/04/14 00:20:51;;;;;;;23.05;13.50;;;0.30;99.90;;;;;;5076160;28;20017;-66
2021/04/14 00:23:20;;;;;;;22.73;12.73;;;0.40;99.90;;;;;;5074648;28;20031;-66
2021/04/14 00:25:47;;;;;;;24.40;13.02;;;0.40;99.90;;;;;;5075996;28;20032;-66
2021/04/14 00:28:15;;;;;;;21.35;12.30;;;0.40;99.90;;;;;;5074573;28;20104;-66
2021/04/14 00:30:41;;;;;;;16.88;12.20;;;0.30;99.90;;;;;;5075425;28;20182;-66
2021/04/14 00:33:07;;;;;;;20.75;12.95;;;0.30;99.90;;;;;;5074934;28;20071;-66
2021/04/14 00:35:32;;;;;;;19.35;12.15;;;0.20;99.90;;;;;;5075868;28;20469;-66
2021/04/14 00:37:58;;;;;;;19.80;11.70;;;0.20;99.90;;;;;;5057381;28;20422;-66
2021/04/14 00:40:29;;;;;;;18.52;11.88;;;0.10;99.90;;;;;;5075187;28;20103;-66
2021/04/14 00:42:55;;;;;;;17.15;11.50;;;0.10;99.90;;;;;;5074478;28;20381;-66
2021/04/14 00:45:22;;;;;;;18.40;11.65;;;0.10;99.90;;;;;;5075566;28;20369;-66
2021/04/14 00:47:48;;;;;;;24.02;11.68;;;0.00;99.90;;;;;;5075465;28;20051;-66
2021/04/14 00:50:16;;;;;;;27.08;13.25;;;0.00;99.90;;;;;;5073620;28;20064;-66
2021/04/14 00:52:42;;;;;;;24.63;12.48;;;0.00;99.90;;;;;;5075171;28;20036;-67
2021/04/14 00:55:11;;;;;;;23.02;12.70;;;0.00;99.90;;;;;;5072956;28;20020;-67
2021/04/14 00:57:37;;;;;;;22.42;13.18;;;0.00;99.90;;;;;;5073629;28;20484;-67
2021/04/14 01:00:06;;;;;;;24.63;12.88;;;0.00;99.90;;;;;;5075247;28;20037;-67
2021/04/14 01:02:31;;;;;;;21.90;13.35;;;0.00;99.90;;;;;;5073447;28;20025;-67
2021/04/14 01:04:57;;;;;;;18.27;12.40;;;0.00;99.90;;;;;;5073943;28;20028;-66
2021/04/14 01:07:23;;;;;;;22.67;12.50;;;-0.10;99.90;;;;;;5074871;28;20025;-66
2021/04/14 01:09:48;;;;;;;22.08;13.90;;;-0.10;99.90;;;;;;5074694;28;20470;-67
2021/04/14 01:12:14;;;;;;;20.35;13.70;;;-0.20;99.90;;;;;;5073566;28;20025;-66
2021/04/14 01:14:39;;;;;;;25.45;14.98;;;-0.10;99.90;;;;;;5073161;28;20362;-67
2021/04/14 01:17:05;;;;;;;26.50;14.55;;;-0.20;99.90;;;;;;5074635;28;20456;-66
2021/04/14 01:19:31;;;;;;;23.52;14.20;;;-0.20;99.90;;;;;;5073432;28;20466;-66
2021/04/14 01:21:57;;;;;;;24.40;14.85;;;-0.30;99.90;;;;;;5056393;28;20028;-65
2021/04/14 01:24:22;;;;;;;23.25;14.55;;;-0.30;99.90;;;;;;5074539;28;20044;-65
2021/04/14 01:26:49;;;;;;;23.15;13.65;;;-0.30;99.90;;;;;;5073315;28;20070;-67
2021/04/14 01:29:14;;;;;;;25.17;14.43;;;-0.40;99.90;;;;;;5072875;28;20478;-65
2021/04/14 01:31:41;;;;;;;23.38;14.70;;;-0.40;99.90;;;;;;5072724;28;20086;-66
2021/04/14 01:34:11;;;;;;;20.98;13.50;;;-0.40;99.90;;;;;;5074601;28;20024;-65
2021/04/14 01:36:37;;;;;;;23.85;14.35;;;-0.50;99.90;;;;;;5073403;28;20016;-65
2021/04/14 01:39:05;;;;;;;25.55;13.85;;;-0.50;99.90;;;;;;5073366;28;20361;-65
2021/04/14 01:41:30;;;;;;;25.83;14.55;;;-0.50;99.90;;;;;;5072701;28;20025;-65
2021/04/14 01:43:56;;;;;;;26.60;15.38;;;-0.50;99.90;;;;;;5074405;28;20078;-65
2021/04/14 01:46:21;;;;;;;28.67;15.68;;;-0.50;99.90;;;;;;5072627;28;20094;-65
2021/04/14 01:48:47;;;;;;;26.33;14.25;;;-0.50;99.90;;;;;;5074317;28;20032;-65
2021/04/14 01:51:14;;;;;;;22.13;14.13;;;-0.60;99.90;;;;;;5074257;28;20040;-65
2021/04/14 01:53:40;;;;;;;25.92;14.93;;;-0.60;99.90;;;;;;5074059;28;20028;-65
2021/04/14 01:56:06;;;;;;;25.45;15.05;;;-0.60;99.90;;;;;;5074256;28;20021;-65
2021/04/14 01:58:33;;;;;;;25.10;15.13;;;-0.60;99.90;;;;;;5072777;28;20029;-66
2021/04/14 02:01:03;;;;;;;25.15;14.60;;;-0.60;99.90;;;;;;5073656;28;20066;-65
2021/04/14 02:03:32;;;;;;;25.80;15.30;;;-0.60;99.90;;;;;;5056074;28;20025;-65
2021/04/14 02:05:58;;;;;;;31.63;15.43;;;-0.60;99.90;;;;;;5073859;28;20055;-66
2021/04/14 02:08:24;;;;;;;25.40;15.77;;;-0.70;99.90;;;;;;5072288;28;20028;-65
2021/04/14 02:10:52;;;;;;;26.42;15.05;;;-0.70;99.90;;;;;;5055575;28;20112;-66
2021/04/14 02:13:23;;;;;;;21.08;13.85;;;-0.70;99.90;;;;;;5072650;28;20067;-67
2021/04/14 02:15:50;;;;;;;25.98;14.98;;;-0.70;99.90;;;;;;5072191;28;20029;-67
2021/04/14 02:18:16;;;;;;;28.08;15.70;;;-0.80;99.90;;;;;;5055446;28;20020;-67
2021/04/14 02:20:41;;;;;;;24.52;14.93;;;-0.80;99.90;;;;;;5073705;28;20024;-67
2021/04/14 02:23:20;;;;;;;29.27;16.20;;;-0.80;99.90;;;;;;5073698;28;20035;-67
2021/04/14 02:25:46;;;;;;;28.00;15.82;;;-0.80;99.90;;;;;;5073909;28;20081;-66
2021/04/14 02:28:13;;;;;;;28.40;16.08;;;-0.80;99.90;;;;;;5073881;28;20463;-73
2021/04/14 02:30:38;;;;;;;25.10;15.55;;;-0.80;99.90;;;;;;5073148;28;20501;-73
2021/04/14 02:33:06;;;;;;;25.20;14.88;;;-0.80;99.90;;;;;;5072816;28;20028;-73
2021/04/14 02:35:33;;;;;;;30.25;16.15;;;-0.90;99.90;;;;;;5073257;28;20020;-73
2021/04/14 02:37:58;;;;;;;24.55;16.05;;;-0.90;99.90;;;;;;5073498;28;20078;-73
2021/04/14 02:40:24;;;;;;;24.02;15.30;;;-0.90;99.90;;;;;;5073453;28;20032;-74
2021/04/14 02:42:50;;;;;;;25.98;16.45;;;-0.90;99.90;;;;;;5055808;28;20024;-73
2021/04/14 02:45:21;;;;;;;27.92;16.42;;;-0.90;99.90;;;;;;5073399;28;20425;-73
2021/04/14 02:47:47;;;;;;;29.77;16.52;;;-1.00;99.90;;;;;;5072506;28;20453;-72
2021/04/14 02:50:13;;;;;;;30.58;17.83;;;-1.00;99.90;;;;;;5055842;28;20039;-73
2021/04/14 02:52:39;;;;;;;28.58;17.85;;;-1.00;99.90;;;;;;5071926;28;20094;-73
2021/04/14 02:55:07;;;;;;;27.75;18.50;;;-1.00;99.90;;;;;;5073281;28;20461;-73
2021/04/14 02:57:33;;;;;;;30.63;18.50;;;-1.00;99.90;;;;;;5071838;28;20029;-73
2021/04/14 02:59:59;;;;;;;26.33;16.85;;;-1.00;99.90;;;;;;5073263;28;20032;-74
2021/04/14 03:02:24;;;;;;;29.30;17.90;;;-1.00;99.90;;;;;;5071715;28;20024;-73
2021/04/14 03:04:50;;;;;;;33.30;18.23;;;-1.00;99.90;;;;;;5073279;28;20024;-71
2021/04/14 03:07:16;;;;;;;36.05;19.33;;;-1.00;99.90;;;;;;5073295;28;20032;-73
2021/04/14 03:09:42;;;;;;;31.15;18.00;;;-1.00;99.90;;;;;;5072206;28;20032;-71
2021/04/14 03:12:08;;;;;;;29.85;19.23;;;-1.10;99.90;;;;;;5073259;28;20027;-73
2021/04/14 03:14:34;;;;;;;33.75;18.80;;;-1.00;99.90;;;;;;5055487;28;20108;-73
2021/04/14 03:17:00;;;;;;;34.03;19.15;;;-1.10;99.90;;;;;;5073082;28;20146;-73
2021/04/14 03:19:26;;;;;;;34.22;19.42;;;-1.10;99.90;;;;;;5076956;28;20374;-73
2021/04/14 03:21:52;;;;;;;33.80;18.40;;;-1.10;99.90;;;;;;5076903;28;20024;-73
2021/04/14 03:24:17;;;;;;;30.75;18.67;;;-1.10;99.90;;;;;;5076526;28;20033;-73
2021/04/14 03:26:43;;;;;;;31.20;17.98;;;-1.10;99.90;;;;;;5075623;28;20032;-73
2021/04/14 03:29:09;;;;;;;32.85;20.20;;;-1.20;99.90;;;;;;5059155;28;20052;-73
2021/04/14 03:31:34;;;;;;;33.33;18.55;;;-1.10;99.90;;;;;;5074966;28;20050;-73
2021/04/14 03:34:00;;;;;;;28.80;18.75;;;-1.10;99.90;;;;;;5075492;28;20024;-73
2021/04/14 03:36:26;;;;;;;35.95;18.20;;;-1.10;99.90;;;;;;5075898;28;20024;-73
2021/04/14 03:38:52;;;;;;;36.30;19.92;;;-1.20;99.90;;;;;;5076624;28;20382;-66
2021/04/14 03:41:17;;;;;;;33.38;19.45;;;-1.20;99.90;;;;;;5059226;28;20028;-66
2021/04/14 03:43:43;;;;;;;28.02;18.00;;;-1.20;99.90;;;;;;5074972;28;20127;-66
2021/04/14 03:46:09;;;;;;;32.85;18.55;;;-1.20;99.90;;;;;;5076720;28;20031;-66
2021/04/14 03:48:34;;;;;;;32.78;20.00;;;-1.30;99.90;;;;;;5076685;28;20025;-67
2021/04/14 03:51:00;;;;;;;31.50;19.67;;;-1.30;99.90;;;;;;5075468;28;20032;-66
2021/04/14 03:53:32;;;;;;;33.38;18.85;;;-1.20;99.90;;;;;;5058161;28;20021;-66
2021/04/14 03:56:01;;;;;;;36.85;21.05;;;-1.30;99.90;;;;;;5075168;28;20017;-66
2021/04/14 03:58:29;;;;;;;39.10;21.63;;;-1.20;99.90;;;;;;5076568;28;20428;-66
2021/04/14 04:00:56;;;;;;;34.17;21.77;;;-1.20;99.90;;;;;;5076224;28;20480;-66
2021/04/14 04:03:24;;;;;;;42.13;27.88;;;-1.20;99.90;;;;;;5076136;28;20052;-65
2021/04/14 04:05:50;;;;;;;51.97;33.20;;;-1.30;99.90;;;;;;5074587;28;20024;-66
2021/04/14 04:08:16;;;;;;;63.75;40.20;;;-1.20;99.90;;;;;;5075183;28;20039;-66
2021/04/14 04:10:42;;;;;;;59.20;36.58;;;-1.20;99.90;;;;;;5076245;28;20028;-66
2021/04/14 04:13:08;;;;;;;65.05;38.55;;;-1.20;99.90;;;;;;5076288;28;20024;-66
2021/04/14 04:15:36;;;;;;;69.20;42.78;;;-1.20;99.90;;;;;;5075259;28;20389;-65
2021/04/14 04:18:02;;;;;;;86.10;50.47;;;-1.20;99.90;;;;;;5074750;28;20442;-66
2021/04/14 04:20:28;;;;;;;65.03;40.38;;;-1.20;99.90;;;;;;5075854;28;20103;-65
2021/04/14 04:22:54;;;;;;;67.07;39.85;;;-1.20;99.90;;;;;;5074643;28;20104;-66
2021/04/14 04:25:19;;;;;;;54.53;33.28;;;-1.20;99.90;;;;;;5075092;28;20063;-66
2021/04/14 04:27:45;;;;;;;41.78;26.48;;;-1.10;99.90;;;;;;5074461;28;20032;-65
2021/04/14 04:30:11;;;;;;;46.75;29.15;;;-1.10;99.90;;;;;;5074207;28;20071;-65
2021/04/14 04:32:37;;;;;;;62.10;34.90;;;-1.00;99.90;;;;;;5074689;28;20484;-65
2021/04/14 04:35:06;;;;;;;81.07;45.15;;;-1.00;99.90;;;;;;5074863;28;20029;-65
2021/04/14 04:37:32;;;;;;;55.83;34.17;;;-1.00;99.90;;;;;;5075236;28;20038;-65
2021/04/14 04:39:57;;;;;;;68.20;41.63;;;-1.00;99.90;;;;;;5074313;28;20469;-65
2021/04/14 04:42:23;;;;;;;68.43;42.97;;;-0.90;99.90;;;;;;5075687;28;20028;-65
2021/04/14 04:44:48;;;;;;;103.18;53.10;;;-0.90;99.90;;;;;;5075662;28;20060;-65
2021/04/14 04:47:14;;;;;;;82.88;52.85;;;-0.90;99.90;;;;;;5075611;28;20082;-65
2021/04/14 04:49:39;;;;;;;89.75;54.13;;;-0.80;99.90;;;;;;5075230;28;20381;-65
2021/04/14 04:52:05;;;;;;;93.20;58.08;;;-0.80;99.90;;;;;;5075254;28;20059;-65
2021/04/14 04:54:32;;;;;;;103.97;63.67;;;-0.80;99.90;;;;;;5075544;28;20025;-65
2021/04/14 04:56:58;;;;;;;100.25;63.03;;;-0.70;99.90;;;;;;5056938;28;20020;-65
2021/04/14 04:59:23;;;;;;;95.35;57.88;;;-0.60;99.90;;;;;;5073542;28;20466;-65
2021/04/14 05:01:49;;;;;;;82.90;51.03;;;-0.50;99.90;;;;;;5075359;28;20032;-65
2021/04/14 05:04:15;;;;;;;79.95;51.10;;;-0.50;99.90;;;;;;5073483;28;20024;-65
2021/04/14 05:06:41;;;;;;;65.18;43.13;;;-0.20;99.90;;;;;;5073779;28;20036;-65
2021/04/14 05:09:06;;;;;;;59.20;41.00;;;-0.10;99.90;;;;;;5073753;28;20081;-65
2021/04/14 05:11:32;;;;;;;57.17;40.17;;;0.30;99.90;;;;;;5075074;28;20170;-65
2021/04/14 05:13:58;;;;;;;47.95;34.35;;;0.50;99.90;;;;;;5056583;28;20028;-65
2021/04/14 05:16:24;;;;;;;39.50;29.52;;;0.80;99.90;;;;;;5074983;28;20032;-65
2021/04/14 05:18:50;;;;;;;41.00;28.95;;;1.10;99.90;;;;;;5074990;28;20393;-65
2021/04/14 05:21:16;;;;;;;45.10;28.08;;;1.20;99.90;;;;;;5074917;28;20035;-65
2021/04/14 05:23:41;;;;;;;47.10;28.65;;;1.40;99.90;;;;;;5056393;28;20029;-65
2021/04/14 05:26:07;;;;;;;36.03;25.58;;;1.80;99.90;;;;;;5072946;28;20035;-65
2021/04/14 05:28:33;;;;;;;33.67;23.55;;;2.00;99.90;;;;;;5074743;28;20036;-65
2021/04/14 05:30:58;;;;;;;37.17;23.23;;;2.30;99.90;;;;;;5072937;28;20041;-65
2021/04/14 05:33:25;;;;;;;34.53;21.13;;;2.60;99.90;;;;;;5073132;28;20017;-65
2021/04/14 05:35:52;;;;;;;37.33;23.25;;;2.60;99.90;;;;;;5074249;28;20016;-65
2021/04/14 05:38:17;;;;;;;35.92;26.17;;;2.80;99.90;;;;;;5074515;28;20067;-65
2021/04/14 05:40:43;;;;;;;39.20;26.08;;;3.10;99.90;;;;;;5074227;28;20482;-65
2021/04/14 05:43:28;;;;;;;33.95;21.40;;;3.60;99.90;;;;;;5074178;28;20021;-65
2021/04/14 05:45:56;;;;;;;34.50;19.08;;;4.40;99.90;;;;;;5072918;28;20031;-66
2021/04/14 05:48:22;;;;;;;27.73;18.42;;;5.20;99.90;;;;;;5055902;28;20035;-66
2021/04/14 05:50:48;;;;;;;31.45;19.65;;;6.10;99.90;;;;;;5072869;28;20025;-65
2021/04/14 05:53:14;;;;;;;26.45;19.15;;;6.70;99.90;;;;;;5074383;28;20056;-64
2021/04/14 05:55:39;;;;;;;23.63;17.02;;;6.90;99.90;;;;;;5072576;28;20081;-65
2021/04/14 05:58:05;;;;;;;25.77;17.55;;;7.40;99.90;;;;;;5072785;28;20017;-66
2021/04/14 06:00:38;;;;;;;19.98;15.43;;;7.80;99.90;;;;;;5074232;28;20397;-66
2021/04/14 06:03:03;;;;;;;21.17;14.43;;;7.40;99.90;;;;;;5073727;28;20024;-66
2021/04/14 06:05:29;;;;;;;17.92;14.25;;;7.70;99.90;;;;;;5073927;28;20078;-66
2021/04/14 06:07:55;;;;;;;22.80;15.38;;;8.10;99.90;;;;;;5073907;28;20024;-66
2021/04/14 06:10:22;;;;;;;19.85;13.65;;;7.80;99.90;;;;;;5072298;28;20031;-66
2021/04/14 06:12:50;;;;;;;24.30;15.73;;;7.70;99.90;;;;;;5071562;28;20020;-64
2021/04/14 06:15:19;;;;;;;21.52;15.45;;;7.20;99.90;;;;;;5073315;28;20024;-64
2021/04/14 06:17:44;;;;;;;21.90;15.40;;;6.50;99.90;;;;;;5072591;28;20032;-64
2021/04/14 06:20:13;;;;;;;21.98;16.05;;;6.60;99.90;;;;;;5072853;28;20033;-66
2021/04/14 06:22:39;;;;;;;30.42;16.25;;;5.90;99.90;;;;;;5072277;28;20025;-66
2021/04/14 06:25:09;;;;;;;22.27;15.18;;;5.50;99.90;;;;;;5073383;28;20044;-66
2021/04/14 06:27:42;;;;;;;24.70;14.30;;;6.00;99.90;;;;;;5073856;28;20025;-66
2021/04/14 06:30:08;;;;;;;;;;;7.00;99.90;;;;;;5073149;28;20040;-66
2021/04/14 06:32:33;;;;;;;17.52;11.35;;;7.70;99.90;;;;;;5073237;28;20285;-66
2021/04/14 06:34:59;;;;;;;21.48;11.57;;;8.10;99.90;;;;;;5073494;28;20060;-64
2021/04/14 06:37:25;;;;;;;17.27;10.25;;;8.60;99.90;;;;;;5062015;28;20029;-64
2021/04/14 06:40:19;;;;;;;16.33;9.70;;;8.80;99.90;;;;;;5068686;28;20391;-66
2021/04/14 06:42:55;;;;;;;14.95;9.77;;;8.90;99.90;;;;;;5043430;28;20115;-66
2021/04/14 06:45:26;;;;;;;19.65;10.15;;;9.20;99.90;;;;;;5065195;28;20044;-66
2021/04/14 06:48:09;;;;;;;14.98;9.63;;;9.40;99.90;;;;;;5071982;28;20115;-64
2021/04/14 06:50:42;;;;;;;17.92;9.95;;;9.60;99.90;;;;;;5068065;28;20088;-67
2021/04/14 06:53:21;;;;;;;18.13;10.20;;;9.60;99.90;;;;;;5073056;28;20024;-67
2021/04/14 06:56:00;;;;;;;12.85;9.07;;;10.30;99.90;;;;;;5083202;28;20385;-67
2021/04/14 06:58:41;;;;;;;17.23;9.02;;;10.60;99.90;;;;;;5073687;28;20017;-66
2021/04/14 07:01:13;;;;;;;14.10;8.98;;;10.50;99.90;;;;;;5073274;28;20021;-67
2021/04/14 07:03:53;;;;;;;11.63;7.57;;;10.10;99.90;;;;;;5073745;28;20027;-67
2021/04/14 07:06:23;;;;;;;8.55;5.30;;;10.20;99.90;;;;;;5072369;28;20025;-66
2021/04/14 07:09:04;;;;;;;10.65;5.32;;;10.60;99.90;;;;;;5072116;28;20048;-66
2021/04/14 07:11:31;;;;;;;13.60;4.60;;;11.00;99.90;;;;;;5064483;28;20097;-67
2021/04/14 07:13:57;;;;;;;10.48;4.78;;;11.30;99.90;;;;;;5067890;28;20489;-67
2021/04/14 07:17:02;;;;;;;8.63;4.68;;;11.30;99.90;;;;;;5074231;28;20032;-67
2021/04/14 07:22:48;;;;;;;9.27;4.25;;;11.70;99.90;;;;;;5049282;28;20403;-65
2021/04/14 07:25:30;;;;;;;7.82;3.78;;;11.70;99.90;;;;;;5058834;28;20029;-65
2021/04/14 07:28:35;;;;;;;9.48;5.20;;;12.20;99.90;;;;;;5039921;28;20075;-65
2021/04/14 07:31:24;;;;;;;13.77;4.65;;;12.30;99.90;;;;;;5010526;28;20070;-64
2021/04/14 07:37:12;;;;;;;7.43;3.33;;;12.80;99.90;;;;;;5105389;27;20367;-65
2021/04/14 07:39:54;;;;;;;9.13;3.42;;;12.50;99.90;;;;;;5092290;28;20082;-65
2021/04/14 07:42:33;;;;;;;6.82;3.20;;;12.10;99.90;;;;;;5084981;28;20433;-65
2021/04/14 07:47:49;;;;;;;10.50;3.30;;;12.60;99.90;;;;;;5109772;27;20367;-65
2021/04/14 07:50:16;;;;;;;6.80;3.20;;;12.90;99.90;;;;;;5098747;28;20025;-65
2021/04/14 07:52:42;;;;;;;5.95;2.97;;;13.30;99.90;;;;;;5097219;28;20024;-65
2021/04/14 07:55:26;;;;;;;5.28;3.05;;;13.20;99.90;;;;;;5082151;28;20020;-65
2021/04/14 07:57:52;;;;;;;5.38;2.67;;;12.50;99.90;;;;;;5103180;28;20067;-66
2021/04/14 08:00:26;;;;;;;8.35;3.42;;;13.00;99.90;;;;;;5094579;28;20028;-64
2021/04/14 08:02:51;;;;;;;8.07;2.90;;;13.10;99.90;;;;;;5109024;28;20035;-65
2021/04/14 08:05:31;;;;;;;10.05;2.83;;;13.30;99.20;;;;;;5110078;28;20028;-64
2021/04/14 08:07:56;;;;;;;10.45;3.03;;;12.90;99.90;;;;;;5108661;28;20047;-67
2021/04/14 08:10:26;;;;;;;9.07;3.30;;;12.70;99.90;;;;;;5109139;28;20031;-66
2021/04/14 08:13:09;;;;;;;10.20;3.40;;;13.00;99.90;;;;;;5108309;28;20023;-66
2021/04/14 08:15:44;;;;;;;6.57;2.42;;;11.60;99.90;;;;;;5108784;28;20031;-66
2021/04/14 08:18:32;;;;;;;6.45;2.50;;;11.30;99.90;;;;;;5109552;28;20047;-66
2021/04/14 08:21:24;;;;;;;7.43;2.40;;;11.50;99.90;;;;;;5110076;28;20024;-66
2021/04/14 08:23:55;;;;;;;8.15;2.58;;;10.60;99.90;;;;;;5101589;28;20384;-67
2021/04/14 08:26:24;;;;;;;7.88;1.90;;;9.00;99.90;;;;;;5110452;28;20032;-66
2021/04/14 08:28:51;;;;;;;3.83;1.98;;;9.00;99.90;;;;;;5105380;28;20396;-66
2021/04/14 08:31:34;;;;;;;8.20;2.55;;;9.40;99.90;;;;;;5098342;28;20011;-66
2021/04/14 08:34:11;;;;;;;6.95;2.95;;;9.70;99.90;;;;;;5097312;28;20373;-66
2021/04/14 08:36:46;;;;;;;4.43;2.53;;;9.40;99.90;;;;;;5108302;28;20036;-66
2021/04/14 08:39:18;;;;;;;6.15;2.65;;;9.70;99.90;;;;;;5100124;28;20143;-66
2021/04/14 08:41:44;;;;;;;8.98;2.75;;;9.50;99.90;;;;;;5107087;28;20020;-66
2021/04/14 08:44:14;;;;;;;9.07;2.55;;;9.30;99.90;;;;;;5108858;28;20050;-66
2021/04/14 08:46:42;;;;;;;7.47;2.40;;;9.10;99.90;;;;;;5102617;28;20048;-66
2021/04/14 08:49:24;;;;;;;5.57;2.00;;;9.90;99.90;;;;;;5097339;28;20027;-67
2021/04/14 08:51:52;;;;;;;5.95;2.03;;;11.30;99.90;;;;;;5111389;28;20019;-66
2021/04/14 08:54:23;;;;;;;4.82;2.20;;;12.20;99.90;;;;;;5099280;28;20465;-66
2021/04/14 08:56:50;;;;;;;5.20;1.55;;;11.80;99.90;;;;;;5116857;28;20032;-67
2021/04/14 08:59:16;;;;;;;6.22;1.83;;;10.90;99.90;;;;;;5071185;28;20523;-66
2021/04/14 09:01:41;;;;;;;6.60;2.03;;;10.80;99.90;;;;;;5090851;28;20031;-66
2021/04/14 09:04:10;;;;;;;6.68;2.00;;;10.80;99.90;;;;;;5094437;28;20545;-66
2021/04/14 09:06:38;;;;;;;5.38;1.67;;;10.70;99.90;;;;;;5088318;28;20028;-65
2021/04/14 09:09:06;;;;;;;4.07;1.65;;;10.60;99.90;;;;;;5092701;28;20027;-65
2021/04/14 09:11:33;;;;;;;11.40;2.22;;;11.70;99.90;;;;;;5094259;28;20099;-65
2021/04/14 09:14:03;;;;;;;5.72;2.20;;;11.30;97.60;;;;;;5087896;28;20073;-65
2021/04/14 09:16:32;;;;;;;5.70;2.03;;;10.70;99.90;;;;;;5087767;28;20433;-65
2021/04/14 09:22:02;;;;;;;11.13;2.35;;;10.60;99.90;;;;;;5085457;28;20772;-65
2021/04/14 09:24:36;;;;;;;6.78;1.88;;;9.60;99.90;;;;;;5082033;28;20108;-67
2021/04/14 09:27:03;;;;;;;6.20;2.33;;;9.60;99.90;;;;;;5078192;28;20017;-67
2021/04/14 09:29:34;;;;;;;4.57;2.08;;;9.70;99.90;;;;;;5067935;28;20031;-67
2021/04/14 09:32:11;;;;;;;5.45;2.15;;;9.60;99.90;;;;;;5051354;28;20389;-66
2021/04/14 09:34:42;;;;;;;5.47;2.65;;;9.30;99.90;;;;;;5069718;28;20488;-66
2021/04/14 09:37:27;;;;;;;7.13;2.45;;;9.00;99.90;;;;;;5067195;28;20625;-67
2021/04/14 09:40:00;;;;;;;5.00;2.67;;;9.10;99.90;;;;;;5070354;28;20482;-67
2021/04/14 09:42:30;;;;;;;5.68;2.83;;;9.20;99.90;;;;;;5066639;28;20083;-66
2021/04/14 09:44:58;;;;;;;7.90;3.00;;;9.10;99.90;;;;;;5067194;28;20108;-67
2021/04/14 09:50:33;;;;;;;6.18;2.95;;;9.00;99.90;;;;;;5110554;27;20105;-67
2021/04/14 09:53:03;;;;;;;7.10;3.20;;;9.90;99.90;;;;;;5098229;28;20024;-67
2021/04/14 09:55:39;;;;;;;5.45;2.53;;;11.50;99.90;;;;;;5095286;28;20069;-67
2021/04/14 09:58:08;;;;;;;5.45;2.33;;;13.80;93.40;;;;;;5088018;28;20036;-68
2021/04/14 10:00:41;;;;;;;4.60;2.50;;;14.70;69.80;;;;;;5090809;28;20035;-64
2021/04/14 10:03:19;;;;;;;4.50;2.00;;;14.50;67.60;;;;;;5089413;28;20055;-67
2021/04/14 10:05:45;;;;;;;4.43;2.00;;;13.30;76.60;;;;;;5094122;28;20024;-67
2021/04/14 10:08:15;;;;;;;6.93;2.40;;;12.20;84.60;;;;;;5090987;28;20042;-66
2021/04/14 10:10:44;;;;;;;5.85;2.25;;;11.70;93.10;;;;;;5091643;28;20431;-68
2021/04/14 10:13:12;;;;;;;4.43;2.30;;;11.50;93.50;;;;;;5093058;28;20115;-65
2021/04/14 10:15:42;;;;;;;7.43;2.15;;;12.30;94.80;;;;;;5089335;28;20017;-67
2021/04/14 10:18:16;;;;;;;5.45;2.80;;;12.70;91.80;;;;;;5090319;28;20029;-67
2021/04/14 10:20:42;;;;;;;3.63;2.20;;;11.60;92.10;;;;;;5089110;28;20047;-67
2021/04/14 10:23:12;;;;;;;3.75;2.28;;;11.60;91.90;;;;;;5090560;28;20127;-67
2021/04/14 10:25:40;;;;;;;3.85;1.90;;;13.10;91.00;;;;;;5089238;28;20466;-67
2021/04/14 10:28:16;;;;;;;4.75;2.03;;;13.80;79.60;;;;;;5097542;28;20461;-66
2021/04/14 10:30:45;;;;;;;5.28;2.45;;;14.30;75.50;;;;;;5088961;28;20054;-67
2021/04/14 10:33:24;;;;;;;5.13;2.42;;;14.60;69.90;;;;;;5070427;28;20405;-67
2021/04/14 10:35:51;;;;;;;3.85;2.25;;;15.20;64.70;;;;;;5088933;28;20033;-67
2021/04/14 10:38:34;;;;;;;6.10;2.65;;;14.90;67.60;;;;;;5087441;28;20536;-67
2021/04/14 10:41:12;;;;;;;5.53;2.33;;;14.90;62.50;;;;;;5087258;28;20028;-67
2021/04/14 10:43:37;;;;;;;6.22;2.53;;;14.50;63.00;;;;;;5088227;28;20308;-67
2021/04/14 10:46:13;;;;;;;5.90;2.35;;;14.20;69.40;;;;;;5068165;28;20119;-67
2021/04/14 10:48:42;;;;;;;5.63;2.38;;;13.50;67.00;;;;;;5085231;28;20050;-67
2021/04/14 10:51:27;;;;;;;5.15;2.60;;;12.60;67.60;;;;;;5098994;28;20044;-66
2021/04/14 10:53:57;;;;;;;4.15;2.20;;;13.10;80.10;;;;;;5101143;28;20023;-66
2021/04/14 10:56:29;;;;;;;4.88;2.63;;;12.40;77.60;;;;;;5087347;28;20378;-66
2021/04/14 10:58:56;;;;;;;5.47;2.75;;;12.50;67.90;;;;;;5088756;28;20112;-66
2021/04/14 11:01:40;;;;;;;5.38;2.70;;;12.30;76.40;;;;;;5074461;28;20052;-66
2021/04/14 11:04:25;;;;;;;3.13;2.58;;;11.60;72.90;;;;;;5077556;28;20026;-66
2021/04/14 11:06:54;;;;;;;6.25;3.05;;;10.60;77.50;;;;;;5094294;28;20400;-66
2021/04/14 11:09:21;;;;;;;3.85;2.40;;;10.10;90.70;;;;;;5083037;28;20032;-66
2021/04/14 11:11:47;;;;;;;4.68;2.50;;;10.00;88.40;;;;;;5074959;28;20028;-66
2021/04/14 11:14:16;;;;;;;5.03;2.47;;;9.70;95.60;;;;;;5072393;28;20067;-66
2021/04/14 11:16:43;;;;;;;5.07;2.70;;;10.10;93.00;;;;;;5078557;28;20115;-66
2021/04/14 11:19:21;;;;;;;7.20;2.80;;;10.50;94.40;;;;;;5075166;28;20383;-66
2021/04/14 11:22:00;;;;;;;6.20;2.85;;;11.20;94.00;;;;;;5074930;28;20029;-66
2021/04/14 11:24:25;;;;;;;4.97;2.65;;;11.60;91.60;;;;;;5074859;28;20031;-66
2021/04/14 11:26:57;;;;;;;5.25;2.85;;;11.70;90.00;;;;;;5075249;28;20020;-66
2021/04/14 11:29:30;;;;;;;2.85;2.30;;;11.70;91.90;;;;;;5073631;28;20454;-66
2021/04/14 11:31:58;;;;;;;5.38;2.67;;;12.30;89.10;;;;;;5074652;28;20020;-66
2021/04/14 11:34:27;;;;;;;5.57;3.00;;;11.80;76.90;;;;;;5074782;28;20040;-66
2021/04/14 11:37:05;;;;;;;5.63;2.78;;;11.10;86.80;;;;;;5074270;28;20012;-66
2021/04/14 11:40:07;;;;;;;7.13;2.90;;;11.30;87.60;;;;;;5072376;28;20116;-66
2021/04/14 11:42:45;;;;;;;6.32;2.40;;;11.80;89.30;;;;;;5068006;28;20123;-66
2021/04/14 11:45:25;;;;;;;7.68;2.38;;;11.80;83.90;;;;;;5066352;28;20500;-66
2021/04/14 11:47:50;;;;;;;4.93;2.22;;;11.60;70.90;;;;;;5089669;28;20060;-66
2021/04/14 11:50:22;;;;;;;6.50;3.50;;;10.10;73.90;;;;;;5073898;28;20064;-66
2021/04/14 11:52:51;;;;;;;5.78;2.63;;;9.90;80.80;;;;;;5079669;28;20020;-66
2021/04/14 11:58:00;;;;;;;6.53;3.83;;;10.10;76.30;;;;;;5109447;27;21068;-67
2021/04/14 12:05:57;;;;;;;5.55;2.40;;;12.20;88.20;;;;;;5097606;27;20361;-65
2021/04/14 12:08:25;;;;;;;6.22;2.50;;;12.90;73.20;;;;;;5109439;28;20024;-67
2021/04/14 12:10:52;;;;;;;3.22;1.80;;;12.70;72.80;;;;;;5095304;28;20021;-65
2021/04/14 12:13:18;;;;;;;6.43;2.20;;;11.70;63.00;;;;;;5108227;28;20141;-65
2021/04/14 12:15:44;;;;;;;4.82;2.33;;;11.70;74.30;;;;;;5099094;28;20016;-65
2021/04/14 12:18:10;;;;;;;5.90;2.33;;;11.80;80.00;;;;;;5089921;28;20358;-65
2021/04/14 12:20:36;;;;;;;3.42;1.90;;;11.90;78.20;;;;;;5102590;28;20410;-65
2021/04/14 12:23:01;;;;;;;4.32;2.28;;;11.50;72.50;;;;;;5110307;28;20024;-65
2021/04/14 12:25:27;;;;;;;3.17;2.10;;;11.30;76.90;;;;;;5100223;28;20485;-65
2021/04/14 12:27:53;;;;;;;6.38;3.15;;;10.40;91.10;;;;;;5107428;28;20385;-65
2021/04/14 12:30:20;;;;;;;8.98;3.15;;;9.70;95.20;;;;;;5109496;28;20023;-65
2021/04/14 12:32:47;;;;;;;4.97;2.47;;;9.60;99.90;;;;;;5104790;28;20021;-65
2021/04/14 12:35:13;;;;;;;4.93;2.42;;;9.70;99.90;;;;;;5104275;28;20024;-65
2021/04/14 12:37:38;;;;;;;4.43;2.80;;;9.40;99.90;;;;;;5108758;28;20024;-65
2021/04/14 12:40:05;;;;;;;5.47;2.45;;;9.20;99.90;;;;;;5108808;28;20089;-65
2021/04/14 12:42:32;;;;;;;3.95;3.00;;;9.50;99.90;;;;;;5106954;28;20085;-65
2021/04/14 12:45:01;;;;;;;3.88;3.00;;;9.50;99.90;;;;;;5107949;28;20444;-65
2021/04/14 12:47:28;;;;;;;6.10;2.67;;;9.50;99.90;;;;;;5106356;28;20027;-65
2021/04/14 12:49:54;;;;;;;6.65;2.90;;;9.40;99.90;;;;;;5090633;28;20020;-65
2021/04/14 12:52:28;;;;;;;8.45;3.10;;;9.20;99.90;;;;;;5106974;28;20028;-65
2021/04/14 12:54:56;;;;;;;8.80;3.25;;;9.10;99.90;;;;;;5107621;28;20449;-65
2021/04/14 12:57:25;;;;;;;8.95;3.05;;;9.80;99.90;;;;;;5102340;28;20073;-65
2021/04/14 12:59:57;;;;;;;8.00;2.83;;;10.00;99.90;;;;;;5107064;28;20030;-65
2021/04/14 13:02:30;;;;;;;4.90;3.13;;;10.40;99.90;;;;;;5089828;28;20028;-65
2021/04/14 13:05:18;;;;;;;4.07;2.53;;;10.70;99.90;;;;;;5107210;28;20512;-65
2021/04/14 13:08:10;;;;;;;7.75;2.20;;;10.90;99.90;;;;;;5107442;28;20028;-65
2021/04/14 13:11:00;;;;;;;8.95;2.17;;;10.90;99.90;;;;;;5107154;28;20051;-65
2021/04/14 13:13:26;;;;;;;3.22;2.22;;;10.90;98.00;;;;;;5101491;28;20538;-65